createdAt,value
2022-09-01T00:01:43.124Z,4.05
2022-09-01T00:04:12.722Z,4.50
2022-09-01T00:06:41.208Z,4.18
2022-09-01T00:09:10.422Z,4.22
2022-09-01T00:11:39.134Z,4.50
2022-09-01T00:14:09.901Z,4.22
2022-09-01T00:16:56.756Z,4.38
2022-09-01T00:19:25.182Z,4.35
2022-09-01T00:21:53.104Z,4.50
2022-09-01T00:24:21.156Z,4.07
2022-09-01T00:26:49.374Z,4.15
2022-09-01T00:29:17.223Z,3.35
2022-09-01T00:31:44.995Z,3.13
2022-09-01T00:34:14.008Z,3.53
2022-09-01T00:36:42.577Z,3.55
2022-09-01T00:39:10.376Z,3.88
2022-09-01T00:41:39.597Z,3.95
2022-09-01T00:44:09.048Z,4.03
2022-09-01T00:46:40.970Z,4.30
2022-09-01T00:49:22.502Z,3.90
2022-09-01T00:51:52.279Z,4.03
2022-09-01T00:54:41.000Z,4.80
2022-09-01T00:57:09.971Z,4.47
2022-09-01T00:59:39.980Z,4.47
2022-09-01T01:02:08.179Z,3.90
2022-09-01T01:04:37.232Z,4.78
2022-09-01T01:07:06.295Z,4.82
2022-09-01T01:09:35.179Z,4.28
2022-09-01T01:12:05.009Z,4.63
2022-09-01T01:14:33.924Z,4.38
2022-09-01T01:17:02.132Z,4.95
2022-09-01T01:19:46.162Z,4.78
2022-09-01T01:22:31.969Z,5.00
2022-09-01T01:25:02.292Z,5.40
2022-09-01T01:27:33.263Z,6.45
2022-09-01T01:30:12.159Z,6.53
2022-09-01T01:32:43.073Z,5.32
2022-09-01T01:35:14.658Z,4.07
2022-09-01T01:37:45.773Z,3.90
2022-09-01T01:40:16.665Z,3.47
2022-09-01T01:42:45.917Z,3.72
2022-09-01T01:45:17.281Z,3.90
2022-09-01T01:47:53.205Z,4.25
2022-09-01T01:50:23.669Z,3.78
2022-09-01T01:52:58.138Z,4.00
2022-09-01T01:55:31.126Z,4.10
2022-09-01T01:58:01.228Z,4.03
2022-09-01T02:00:32.159Z,4.10
2022-09-01T02:03:00.020Z,4.72
2022-09-01T02:05:28.867Z,4.80
2022-09-01T02:07:59.469Z,4.75
2022-09-01T02:10:31.503Z,4.38
2022-09-01T02:13:04.226Z,4.03
2022-09-01T02:15:32.923Z,4.13
2022-09-01T02:18:00.620Z,4.30
2022-09-01T02:20:33.484Z,4.20
2022-09-01T02:23:09.332Z,4.05
2022-09-01T02:25:53.912Z,4.68
2022-09-01T02:28:28.483Z,4.20
2022-09-01T02:30:57.626Z,4.30
2022-09-01T02:33:25.367Z,4.78
2022-09-01T02:35:54.780Z,4.47
2022-09-01T02:38:26.235Z,4.40
2022-09-01T02:40:55.759Z,4.90
2022-09-01T02:43:23.843Z,4.30
2022-09-01T02:45:57.481Z,4.03
2022-09-01T02:48:32.536Z,4.28
2022-09-01T02:51:01.857Z,4.80
2022-09-01T02:53:30.958Z,4.35
2022-09-01T02:55:59.975Z,4.97
2022-09-01T02:58:29.192Z,4.80
2022-09-01T03:00:57.730Z,4.60
2022-09-01T03:03:26.532Z,5.15
2022-09-01T03:05:56.245Z,4.85
2022-09-01T03:08:25.496Z,5.03
2022-09-01T03:10:54.852Z,4.95
2022-09-01T03:13:25.153Z,5.15
2022-09-01T03:15:52.877Z,4.53
2022-09-01T03:18:20.793Z,4.25
2022-09-01T03:20:51.224Z,4.13
2022-09-01T03:23:19.683Z,4.40
2022-09-01T03:25:49.308Z,4.45
2022-09-01T03:28:17.184Z,3.70
2022-09-01T03:30:48.984Z,4.03
2022-09-01T03:33:17.787Z,4.22
2022-09-01T03:35:47.119Z,3.60
2022-09-01T03:38:24.456Z,4.22
2022-09-01T03:40:58.872Z,3.78
2022-09-01T03:43:34.571Z,4.20
2022-09-01T03:46:06.329Z,4.18
2022-09-01T03:48:34.367Z,4.00
2022-09-01T03:51:03.375Z,3.97
2022-09-01T03:53:33.620Z,4.25
2022-09-01T03:56:04.091Z,4.13
2022-09-01T03:58:33.243Z,4.30
2022-09-01T04:01:02.939Z,3.67
2022-09-01T04:03:34.504Z,4.00
2022-09-01T04:06:04.264Z,4.53
2022-09-01T04:08:34.935Z,3.40
2022-09-01T04:11:05.367Z,4.00
2022-09-01T04:13:36.532Z,3.45
2022-09-01T04:16:10.635Z,3.95
2022-09-01T04:18:40.038Z,4.00
2022-09-01T04:21:09.025Z,3.50
2022-09-01T04:23:37.067Z,3.42
2022-09-01T04:26:10.075Z,4.15
2022-09-01T04:28:39.297Z,4.43
2022-09-01T04:31:09.058Z,4.10
2022-09-01T04:33:40.022Z,4.18
2022-09-01T04:36:15.069Z,4.18
2022-09-01T04:38:42.903Z,4.18
2022-09-01T04:41:17.407Z,4.07
2022-09-01T04:43:47.237Z,4.15
2022-09-01T04:46:15.661Z,4.05
2022-09-01T04:48:46.062Z,4.32
2022-09-01T04:51:16.265Z,4.47
2022-09-01T04:53:57.367Z,4.10
2022-09-01T04:56:26.799Z,4.50
2022-09-01T04:59:08.039Z,4.63
2022-09-01T05:01:43.223Z,4.45
2022-09-01T05:04:16.125Z,4.47
2022-09-01T05:06:44.923Z,4.65
2022-09-01T05:09:14.145Z,4.43
2022-09-01T05:11:48.426Z,4.35
2022-09-01T05:14:22.932Z,4.03
2022-09-01T05:16:54.126Z,4.60
2022-09-01T05:19:25.816Z,4.28
2022-09-01T05:21:57.924Z,4.35
2022-09-01T05:24:38.542Z,4.18
2022-09-01T05:27:12.355Z,4.18
2022-09-01T05:29:45.740Z,4.10
2022-09-01T05:32:14.104Z,4.88
2022-09-01T05:34:45.036Z,4.70
2022-09-01T05:37:16.180Z,4.93
2022-09-01T05:39:43.972Z,4.72
2022-09-01T05:42:12.191Z,4.93
2022-09-01T05:44:44.915Z,5.18
2022-09-01T05:47:20.805Z,4.70
2022-09-01T05:49:53.452Z,4.28
2022-09-01T05:52:26.390Z,4.68
2022-09-01T05:54:55.465Z,5.40
2022-09-01T05:57:34.349Z,4.60
2022-09-01T06:00:03.569Z,4.95
2022-09-01T06:02:40.924Z,5.25
2022-09-01T06:05:13.996Z,5.57
2022-09-01T06:07:42.864Z,6.65
2022-09-01T06:10:12.834Z,6.13
2022-09-01T06:12:40.881Z,6.20
2022-09-01T06:15:15.610Z,5.50
2022-09-01T06:17:46.274Z,5.40
2022-09-01T06:20:18.155Z,5.65
2022-09-01T06:22:46.004Z,5.80
2022-09-01T06:25:14.387Z,5.43
2022-09-01T06:27:45.947Z,5.25
2022-09-01T06:30:23.083Z,5.35
2022-09-01T06:32:56.993Z,5.20
2022-09-01T06:35:29.370Z,5.05
2022-09-01T06:37:58.358Z,5.57
2022-09-01T06:40:39.229Z,5.45
2022-09-01T06:43:08.222Z,5.10
2022-09-01T06:45:41.965Z,5.17
2022-09-01T06:48:09.901Z,5.57
2022-09-01T06:53:32.837Z,5.32
2022-09-01T06:56:04.353Z,5.35
2022-09-01T06:58:33.208Z,5.50
2022-09-01T07:01:01.111Z,6.38
2022-09-01T07:03:28.796Z,6.38
2022-09-01T07:09:38.562Z,6.20
2022-09-01T07:12:24.805Z,6.90
2022-09-01T07:17:43.174Z,6.63
2022-09-01T07:20:28.769Z,6.40
2022-09-01T07:23:04.499Z,6.78
2022-09-01T07:28:40.403Z,7.00
2022-09-01T07:39:50.315Z,6.43
2022-09-01T07:42:58.960Z,6.20
2022-09-01T07:45:47.425Z,6.55
2022-09-01T07:48:36.636Z,6.53
2022-09-01T07:53:56.561Z,6.97
2022-09-01T07:56:26.601Z,6.50
2022-09-01T07:58:54.436Z,6.78
2022-09-01T08:01:25.752Z,7.32
2022-09-01T08:03:55.206Z,6.85
2022-09-01T08:06:24.736Z,6.70
2022-09-01T08:08:57.043Z,7.15
2022-09-01T08:11:58.101Z,6.53
2022-09-01T08:14:18.152Z,6.30
2022-09-01T08:16:53.761Z,6.53
2022-09-01T08:19:21.839Z,6.47
2022-09-01T08:22:05.697Z,6.55
2022-09-01T08:24:49.795Z,6.95
2022-09-01T08:27:18.926Z,7.40
2022-09-01T08:29:46.626Z,7.25
2022-09-01T08:32:14.334Z,7.15
2022-09-01T08:34:43.463Z,6.95
2022-09-01T08:37:12.252Z,6.75
2022-09-01T08:39:42.404Z,7.18
2022-09-01T08:42:15.140Z,6.45
2022-09-01T08:44:47.602Z,7.00
2022-09-01T08:47:16.721Z,7.57
2022-09-01T08:49:47.261Z,6.45
2022-09-01T08:52:36.677Z,6.70
2022-09-01T08:55:08.246Z,6.20
2022-09-01T08:57:37.886Z,7.25
2022-09-01T09:00:18.140Z,6.70
2022-09-01T09:02:50.906Z,7.10
2022-09-01T09:05:27.133Z,7.05
2022-09-01T09:08:07.182Z,6.00
2022-09-01T09:10:39.033Z,6.22
2022-09-01T09:13:10.556Z,6.75
2022-09-01T09:15:43.418Z,6.32
2022-09-01T09:18:38.382Z,5.82
2022-09-01T09:21:07.013Z,5.88
2022-09-01T09:23:37.373Z,6.53
2022-09-01T09:26:07.949Z,6.93
2022-09-01T09:28:36.023Z,6.60
2022-09-01T09:31:14.737Z,6.72
2022-09-01T09:33:51.860Z,6.57
2022-09-01T09:36:25.524Z,6.07
2022-09-01T09:39:04.598Z,6.00
2022-09-01T09:41:33.014Z,6.38
2022-09-01T09:44:02.379Z,6.47
2022-09-01T09:46:36.426Z,6.07
2022-09-01T09:49:09.974Z,6.47
2022-09-01T09:51:38.059Z,6.32
2022-09-01T09:54:14.477Z,5.72
2022-09-01T09:56:44.391Z,5.75
2022-09-01T09:59:45.789Z,6.10
2022-09-01T10:02:22.266Z,5.95
2022-09-01T10:04:57.105Z,6.07
2022-09-01T10:07:28.345Z,5.97
2022-09-01T10:09:57.360Z,5.97
2022-09-01T10:12:25.494Z,5.57
2022-09-01T10:14:55.409Z,5.88
2022-09-01T10:17:26.793Z,5.30
2022-09-01T10:19:57.543Z,5.32
2022-09-01T10:22:25.928Z,5.45
2022-09-01T10:24:53.671Z,5.28
2022-09-01T10:27:23.479Z,5.35
2022-09-01T10:30:12.103Z,5.28
2022-09-01T10:32:49.256Z,5.88
2022-09-01T10:35:23.629Z,5.20
2022-09-01T10:37:52.058Z,5.68
2022-09-01T10:40:30.306Z,5.60
2022-09-01T10:43:05.394Z,5.03
2022-09-01T10:45:34.286Z,5.05
2022-09-01T10:48:14.819Z,5.35
2022-09-01T10:50:47.093Z,5.10
2022-09-01T10:53:38.068Z,5.00
2022-09-01T10:56:19.255Z,5.40
2022-09-01T11:02:23.058Z,5.40
2022-09-01T11:05:00.663Z,4.95
2022-09-01T11:07:57.955Z,5.57
2022-09-01T11:10:32.438Z,5.07
2022-09-01T11:13:10.267Z,5.50
2022-09-01T11:15:39.883Z,5.47
2022-09-01T11:18:09.819Z,5.07
2022-09-01T11:20:39.355Z,5.65
2022-09-01T11:23:12.153Z,5.50
2022-09-01T11:25:41.571Z,5.28
2022-09-01T11:28:24.045Z,4.97
2022-09-01T11:30:55.163Z,5.40
2022-09-01T11:33:29.639Z,4.75
2022-09-01T11:36:00.102Z,4.88
2022-09-01T11:38:29.777Z,4.95
2022-09-01T11:40:58.007Z,5.18
2022-09-01T11:43:27.172Z,5.22
2022-09-01T11:46:00.317Z,4.63
2022-09-01T11:48:28.044Z,4.55
2022-09-01T11:50:59.424Z,4.55
2022-09-01T11:53:27.715Z,4.57
2022-09-01T11:55:57.911Z,4.43
2022-09-01T11:58:34.466Z,5.07
2022-09-01T12:01:12.956Z,4.63
2022-09-01T12:03:41.148Z,4.07
2022-09-01T12:06:10.304Z,4.03
2022-09-01T12:08:39.828Z,4.43
2022-09-01T12:11:10.313Z,4.03
2022-09-01T12:13:38.986Z,3.58
2022-09-01T12:16:17.946Z,4.15
2022-09-01T12:18:47.373Z,3.70
2022-09-01T12:21:20.329Z,3.58
2022-09-01T12:23:48.333Z,3.45
2022-09-01T12:26:20.071Z,3.50
2022-09-01T12:28:49.660Z,3.70
2022-09-01T12:31:19.956Z,3.13
2022-09-01T12:33:48.188Z,3.35
2022-09-01T12:36:21.513Z,3.85
2022-09-01T12:38:49.461Z,3.75
2022-09-01T12:41:29.030Z,3.30
2022-09-01T12:43:56.923Z,3.47
2022-09-01T12:46:37.159Z,3.67
2022-09-01T12:49:17.247Z,3.30
2022-09-01T12:51:48.551Z,3.33
2022-09-01T12:54:17.558Z,2.88
2022-09-01T12:56:51.030Z,3.25
2022-09-01T12:59:35.746Z,3.13
2022-09-01T13:02:15.108Z,3.08
2022-09-01T13:04:42.998Z,3.20
2022-09-01T13:07:10.643Z,2.83
2022-09-01T13:09:38.843Z,2.90
2022-09-01T13:12:19.144Z,3.20
2022-09-01T13:14:47.255Z,2.47
2022-09-01T13:17:15.959Z,3.22
2022-09-01T13:19:43.637Z,3.17
2022-09-01T13:22:11.625Z,3.10
2022-09-01T13:24:40.111Z,2.97
2022-09-01T13:27:23.588Z,3.25
2022-09-01T13:29:53.300Z,2.90
2022-09-01T13:32:22.354Z,3.00
2022-09-01T13:34:51.945Z,2.85
2022-09-01T13:37:20.148Z,2.83
2022-09-01T13:39:48.357Z,2.85
2022-09-01T13:42:16.438Z,2.60
2022-09-01T13:44:44.546Z,3.05
2022-09-01T13:47:30.071Z,2.83
2022-09-01T13:50:07.666Z,3.30
2022-09-01T13:52:37.996Z,3.13
2022-09-01T13:55:06.073Z,3.08
2022-09-01T13:57:36.526Z,2.75
2022-09-01T14:00:05.668Z,3.38
2022-09-01T14:02:39.347Z,2.72
2022-09-01T14:05:07.259Z,3.10
2022-09-01T14:07:34.943Z,3.38
2022-09-01T14:10:02.710Z,2.67
2022-09-01T14:12:32.027Z,3.17
2022-09-01T14:15:17.510Z,3.03
2022-09-01T14:17:49.128Z,2.97
2022-09-01T14:20:18.262Z,2.95
2022-09-01T14:22:46.310Z,2.67
2022-09-01T14:25:14.533Z,3.00
2022-09-01T14:27:42.858Z,2.90
2022-09-01T14:30:14.421Z,2.92
2022-09-01T14:32:42.129Z,2.85
2022-09-01T14:35:11.721Z,2.78
2022-09-01T14:37:40.069Z,2.70
2022-09-01T14:40:08.577Z,2.95
2022-09-01T14:42:37.120Z,2.80
2022-09-01T14:45:04.968Z,3.00
2022-09-01T14:47:32.633Z,2.80
2022-09-01T14:50:02.600Z,3.30
2022-09-01T14:52:31.764Z,2.70
2022-09-01T14:54:59.638Z,2.63
2022-09-01T14:57:29.074Z,2.70
2022-09-01T14:59:57.107Z,2.70
2022-09-01T15:02:25.247Z,2.60
2022-09-01T15:04:53.107Z,2.70
2022-09-01T15:07:20.789Z,2.65
2022-09-01T15:09:49.732Z,2.63
2022-09-01T15:12:17.640Z,2.25
2022-09-01T15:14:45.488Z,2.45
2022-09-01T15:17:13.171Z,2.30
2022-09-01T15:19:41.061Z,2.30
2022-09-01T15:22:12.821Z,2.63
2022-09-01T15:24:40.495Z,2.30
2022-09-01T15:27:11.299Z,2.50
2022-09-01T15:29:44.796Z,2.22
2022-09-01T15:32:20.750Z,2.53
2022-09-01T15:34:55.392Z,2.20
2022-09-01T15:37:23.147Z,2.47
2022-09-01T15:39:50.804Z,2.40
2022-09-01T15:42:20.112Z,2.45
2022-09-01T15:44:48.807Z,2.40
2022-09-01T15:47:16.543Z,2.70
2022-09-01T15:49:44.467Z,2.35
2022-09-01T15:52:12.456Z,2.25
2022-09-01T15:54:40.439Z,2.30
2022-09-01T15:57:08.958Z,2.20
2022-09-01T15:59:40.004Z,2.30
2022-09-01T16:02:08.224Z,2.47
2022-09-01T16:04:36.607Z,2.30
2022-09-01T16:07:04.549Z,2.50
2022-09-01T16:09:32.507Z,2.58
2022-09-01T16:12:00.288Z,2.60
2022-09-01T16:14:28.437Z,2.70
2022-09-01T16:17:03.298Z,2.63
2022-09-01T16:19:34.385Z,2.80
2022-09-01T16:22:05.807Z,2.70
2022-09-01T16:24:39.482Z,2.90
2022-09-01T16:27:08.748Z,2.95
2022-09-01T16:29:44.625Z,2.90
2022-09-01T16:32:14.760Z,2.47
2022-09-01T16:34:46.626Z,2.80
2022-09-01T16:37:20.652Z,3.15
2022-09-01T16:39:50.596Z,3.15
2022-09-01T16:42:26.053Z,3.10
2022-09-01T16:44:58.804Z,2.45
2022-09-01T16:47:34.427Z,2.90
2022-09-01T16:50:06.197Z,2.65
2022-09-01T16:52:38.393Z,2.80
2022-09-01T16:55:16.365Z,2.60
2022-09-01T16:57:49.821Z,3.30
2022-09-01T17:00:28.751Z,2.80
2022-09-01T17:03:03.943Z,2.67
2022-09-01T17:05:34.385Z,2.70
2022-09-01T17:08:08.168Z,2.72
2022-09-01T17:10:42.056Z,3.00
2022-09-01T17:13:17.190Z,2.80
2022-09-01T17:15:48.025Z,2.60
2022-09-01T17:18:22.456Z,2.90
2022-09-01T17:20:57.875Z,2.53
2022-09-01T17:23:28.931Z,2.65
2022-09-01T17:26:01.643Z,2.53
2022-09-01T17:28:33.572Z,2.65
2022-09-01T17:31:06.149Z,2.30
2022-09-01T17:33:41.865Z,2.65
2022-09-01T17:36:14.083Z,2.35
2022-09-01T17:38:48.048Z,2.60
2022-09-01T17:41:23.260Z,2.45
2022-09-01T17:43:55.387Z,3.03
2022-09-01T17:46:28.334Z,3.25
2022-09-01T17:49:01.840Z,2.83
2022-09-01T17:51:31.588Z,3.10
2022-09-01T17:54:06.961Z,2.90
2022-09-01T17:56:38.225Z,3.10
2022-09-01T17:59:10.429Z,3.10
2022-09-01T18:01:43.538Z,2.80
2022-09-01T18:04:26.276Z,2.80
2022-09-01T18:06:59.456Z,3.08
2022-09-01T18:09:29.132Z,2.40
2022-09-01T18:12:00.657Z,2.97
2022-09-01T18:14:30.908Z,2.53
2022-09-01T18:17:01.642Z,2.70
2022-09-01T18:19:36.272Z,2.80
2022-09-01T18:22:05.830Z,2.72
2022-09-01T18:24:35.328Z,2.65
2022-09-01T18:27:03.056Z,2.67
2022-09-01T18:29:32.040Z,3.20
2022-09-01T18:32:05.432Z,3.20
2022-09-01T18:34:41.776Z,3.25
2022-09-01T18:37:11.875Z,2.30
2022-09-01T18:39:44.773Z,2.90
2022-09-01T18:42:19.925Z,2.90
2022-09-01T18:44:50.830Z,2.88
2022-09-01T18:47:25.444Z,2.40
2022-09-01T18:50:00.300Z,2.45
2022-09-01T18:52:38.319Z,3.08
2022-09-01T18:55:11.200Z,2.80
2022-09-01T18:57:40.007Z,2.97
2022-09-01T19:00:16.995Z,2.97
2022-09-01T19:02:54.304Z,2.53
2022-09-01T19:05:32.788Z,2.78
2022-09-01T19:08:05.896Z,2.88
2022-09-01T19:10:36.322Z,2.55
2022-09-01T19:13:07.696Z,2.55
2022-09-01T19:15:38.868Z,2.75
2022-09-01T19:18:13.047Z,2.60
2022-09-01T19:20:47.311Z,3.10
2022-09-01T19:23:17.516Z,2.60
2022-09-01T19:25:45.868Z,2.88
2022-09-01T19:28:17.810Z,3.03
2022-09-01T19:30:47.982Z,3.20
2022-09-01T19:33:17.592Z,3.05
2022-09-01T19:35:47.800Z,3.13
2022-09-01T19:38:19.927Z,3.25
2022-09-01T19:40:49.029Z,3.35
2022-09-01T19:43:18.128Z,3.00
2022-09-01T19:45:55.988Z,3.13
2022-09-01T19:48:27.286Z,3.20
2022-09-01T19:50:59.911Z,3.47
2022-09-01T19:53:33.780Z,2.80
2022-09-01T19:56:04.752Z,3.05
2022-09-01T19:58:42.982Z,3.30
2022-09-01T20:01:12.711Z,3.05
2022-09-01T20:03:42.014Z,3.53
2022-09-01T20:06:12.846Z,2.97
2022-09-01T20:08:42.692Z,3.33
2022-09-01T20:11:13.227Z,3.22
2022-09-01T20:13:48.803Z,3.25
2022-09-01T20:16:23.804Z,3.47
2022-09-01T20:18:53.766Z,3.38
2022-09-01T20:21:23.097Z,3.72
2022-09-01T20:23:53.724Z,3.30
2022-09-01T20:26:23.272Z,3.25
2022-09-01T20:28:55.323Z,3.15
2022-09-01T20:31:27.852Z,3.35
2022-09-01T20:33:58.396Z,3.35
2022-09-01T20:36:30.120Z,3.65
2022-09-01T20:39:11.280Z,3.97
2022-09-01T20:41:42.847Z,3.25
2022-09-01T20:44:15.599Z,3.50
2022-09-01T20:46:43.379Z,3.95
2022-09-01T20:49:16.145Z,3.50
2022-09-01T20:51:48.925Z,3.90
2022-09-01T20:54:25.039Z,3.25
2022-09-01T20:56:57.389Z,3.70
2022-09-01T20:59:29.367Z,3.63
2022-09-01T21:01:59.208Z,3.28
2022-09-01T21:04:35.804Z,3.70
2022-09-01T21:07:09.117Z,3.70
2022-09-01T21:09:43.868Z,4.03
2022-09-01T21:12:20.264Z,3.90
2022-09-01T21:14:52.672Z,3.80
2022-09-01T21:17:25.748Z,3.70
2022-09-01T21:19:58.829Z,3.65
2022-09-01T21:22:28.132Z,3.65
2022-09-01T21:24:56.243Z,3.55
2022-09-01T21:27:25.158Z,3.60
2022-09-01T21:29:56.306Z,3.90
2022-09-01T21:32:23.969Z,3.63
2022-09-01T21:34:52.993Z,4.07
2022-09-01T21:37:22.385Z,3.95
2022-09-01T21:39:52.976Z,3.70
2022-09-01T21:42:21.744Z,3.80
2022-09-01T21:44:49.641Z,3.92
2022-09-01T21:47:17.683Z,3.45
2022-09-01T21:49:45.531Z,4.22
2022-09-01T21:52:13.370Z,3.78
2022-09-01T21:54:41.093Z,3.42
2022-09-01T21:57:10.085Z,3.70
2022-09-01T21:59:37.785Z,4.07
2022-09-01T22:02:06.892Z,3.78
2022-09-01T22:04:36.891Z,3.60
2022-09-01T22:07:05.285Z,3.38
2022-09-01T22:09:33.218Z,3.80
2022-09-01T22:12:00.871Z,3.60
2022-09-01T22:14:29.783Z,3.88
2022-09-01T22:17:01.075Z,3.90
2022-09-01T22:19:33.649Z,3.97
2022-09-01T22:22:02.095Z,3.65
2022-09-01T22:24:29.819Z,4.00
2022-09-01T22:26:57.508Z,4.05
2022-09-01T22:29:25.180Z,4.25
2022-09-01T22:31:54.324Z,4.10
2022-09-01T22:34:22.086Z,4.05
2022-09-01T22:36:50.331Z,3.72
2022-09-01T22:39:19.107Z,3.78
2022-09-01T22:41:50.056Z,3.90
2022-09-01T22:44:17.981Z,4.28
2022-09-01T22:46:45.946Z,3.38
2022-09-01T22:49:14.934Z,3.85
2022-09-01T22:51:43.659Z,3.78
2022-09-01T22:54:12.101Z,3.70
2022-09-01T22:56:40.411Z,3.67
2022-09-01T22:59:09.566Z,3.90
2022-09-01T23:01:39.596Z,3.38
2022-09-01T23:04:08.440Z,3.75
2022-09-01T23:06:39.461Z,3.63
2022-09-01T23:09:09.259Z,3.95
2022-09-01T23:11:36.897Z,3.50
2022-09-01T23:14:05.231Z,3.67
2022-09-01T23:16:33.592Z,3.40
2022-09-01T23:19:01.363Z,3.58
2022-09-01T23:21:30.312Z,3.67
2022-09-01T23:23:59.709Z,3.75
2022-09-01T23:26:46.169Z,3.53
2022-09-01T23:29:13.861Z,3.42
2022-09-01T23:31:41.598Z,3.42
2022-09-01T23:34:09.590Z,3.47
2022-09-01T23:36:37.369Z,3.75
2022-09-01T23:39:07.101Z,3.63
2022-09-01T23:41:36.809Z,3.13
2022-09-01T23:44:05.984Z,3.25
2022-09-01T23:46:35.100Z,3.38
2022-09-01T23:49:03.066Z,3.40
2022-09-01T23:51:31.729Z,3.45
2022-09-01T23:53:59.869Z,3.47
2022-09-01T23:56:29.545Z,3.60
2022-09-01T23:58:57.558Z,3.33
